This is the latest recevied weather packets stored in our database for station/object KJ5FA-9. If no packets are shown the sender has not sent any weather packets the latest 10 day(s).
| Time | Temp. | Humidity | Pressure | Rain* | Wind** | Luminosity | Snow |
|---|---|---|---|---|---|---|---|
| 1787845335 | 27.22° C | 65% | 1018 hPa | 0 mm | 0 m/s | - | - |
| 1787844627 | 26.67° C | 71% | 1017.9 hPa | 0 mm | - | - | - |
| 1787843535 | 25.56° C | 76% | 1018 hPa | 0 mm | 1.34 m/s, 342° | - | - |
| 1787843127 | 25° C | 79% | 1018.2 hPa | 0 mm | - | - | - |
| 1787841735 | 23.89° C | 84% | 1018.2 hPa | 0 mm | 0.89 m/s, 4° | - | - |
| 1787841627 | 23.89° C | 85% | 1018.1 hPa | 0 mm | - | - | - |
| 1787840127 | 22.78° C | 91% | 1018.2 hPa | 0 mm | - | - | - |
| 1787839935 | 22.22° C | 91% | 1018.2 hPa | 0 mm | 0.45 m/s, 5° | - | - |
| 1787838627 | 21.11° C | 95% | 1018.1 hPa | 0 mm | - | - | - |
| 1787838135 | 21.11° C | 96% | 1017.8 hPa | 0 mm | 0.45 m/s, 335° | - | - |
| 1787837127 | 20.56° C | 97% | 1017.7 hPa | 0 mm | - | - | - |
| 1787836335 | 20.56° C | 97% | 1017.7 hPa | 0 mm | 0 m/s | - | - |
| 1787835627 | 20° C | 98% | 1017.9 hPa | 0 mm | - | - | - |
| 1787834535 | 20° C | 98% | 1017.6 hPa | 0 mm | 0.45 m/s, 327° | - | - |
| 1787834127 | 20° C | 98% | 1017.5 hPa | 0 mm | - | - | - |
| 1787832735 | 20° C | 98% | 1017.2 hPa | 0 mm | 0.89 m/s, 339° | - | - |
| 1787832627 | 20° C | 98% | 1017.2 hPa | 0 mm | - | - | - |
| 1787831127 | 20° C | 98% | 1016.7 hPa | 0 mm | - | - | - |
| 1787830935 | 20° C | 98% | 1016.9 hPa | 0 mm | 0 m/s | - | - |
| 1787829627 | 20° C | 98% | 1016.7 hPa | 0 mm | - | - | - |
| 1787829135 | 20° C | 98% | 1016.5 hPa | 0 mm | 0.89 m/s, 352° | - | - |
| 1787828127 | 20° C | 98% | 1016.5 hPa | 0 mm | - | - | - |
| 1787827335 | 20° C | 98% | 1016.6 hPa | 0 mm | 0 m/s | - | - |
| 1787826627 | 20.56° C | 97% | 1016.4 hPa | 0 mm | - | - | - |
| 1787825535 | 20.56° C | 98% | 1016.5 hPa | 0 mm | 0.45 m/s, 316° | - | - |
* Rain latest hour (hover to see other rain measurements)
** Current wind speed in m/s (hover to see current wind gust speed)